首页
METAR-TAF:

METAR-TAF

机场 :

烏拉爾, 哈萨克斯坦

纬度: 51-15N, 经度: 051-17E, 海拔: 36米

当前天气观测

该预报发布于1小时和7分钟前的16:00 UTC
风速8节,风向南转西南
温度 1°C
湿度 37%
气压 1016 hPa
能见度10公里或以上
1500米以下无云,无积雨云

METAR: UARR 021600Z 20004MPS CAVOK 01/M12 Q1016 R22/CLRD70 NOSIG RMK QFE758/1011

时间: 22:07 (17:07 UTC)

预报

该预报发布于3小时和7分钟前的14:00 UTC
预报有效从02日的 15点(UTC)到 02日的 24点(UTC)
风速8节,风向南转西南
能见度10公里或以上
1500米以下无云,无积雨云
短暂存在
从 02日的 15点(UTC)到 02日的 17点(UTC)
风速10节,风向西转西南,有时为19节阵风

TAF: UARR 021400Z 0215/0224 21004MPS CAVOK TEMPO 0215/0217 24005G10MPS

超过4000个机场的气象观测和天气预报(METAR&TAF报告)。

可查询的气象台以黄色和红色小点在地图上表示。

将鼠标移到小点上方,可查看气象台名称。

然后点击查看天气观测和预报。

如需切换地图:点击带黑十字的绿色按钮放大地图;点击带横线的绿色按钮缩小地图;或者点击绿色箭头查看邻近地区的地图。


METAR-TAF: